createdAt,value
2022-11-29T00:01:12.977Z,14.73
2022-11-29T00:03:40.355Z,14.88
2022-11-29T00:06:10.094Z,15.25
2022-11-29T00:11:05.905Z,11.52
2022-11-29T00:13:33.452Z,13.73
2022-11-29T00:16:04.615Z,17.67
2022-11-29T00:18:33.551Z,14.68
2022-11-29T00:21:04.822Z,15.23
2022-11-29T00:23:32.177Z,15.90
2022-11-29T00:26:04.310Z,13.52
2022-11-29T00:28:31.710Z,14.90
2022-11-29T00:30:59.086Z,12.70
2022-11-29T00:33:27.113Z,19.27
2022-11-29T00:35:56.210Z,14.18
2022-11-29T00:38:23.583Z,13.75
2022-11-29T00:40:51.923Z,16.48
2022-11-29T00:43:19.233Z,15.30
2022-11-29T00:45:47.109Z,14.98
2022-11-29T00:48:14.457Z,14.85
2022-11-29T00:50:41.754Z,15.15
2022-11-29T00:53:10.568Z,16.23
2022-11-29T00:55:37.876Z,17.87
2022-11-29T00:58:05.228Z,12.85
2022-11-29T01:00:32.957Z,15.82
2022-11-29T01:03:00.289Z,16.75
2022-11-29T01:05:27.613Z,14.32
2022-11-29T01:07:55.031Z,16.20
2022-11-29T01:10:24.162Z,13.70
2022-11-29T01:12:51.572Z,15.02
2022-11-29T01:15:18.961Z,15.82
2022-11-29T01:17:46.299Z,16.10
2022-11-29T01:20:14.312Z,13.38
2022-11-29T01:22:42.254Z,15.98
2022-11-29T01:25:12.244Z,17.55
2022-11-29T01:27:41.794Z,15.68
2022-11-29T01:30:11.396Z,14.30
2022-11-29T01:32:39.040Z,14.40
2022-11-29T01:35:07.318Z,33.25
2022-11-29T01:37:34.779Z,26.45
2022-11-29T01:40:02.299Z,21.38
2022-11-29T01:42:30.165Z,14.15
2022-11-29T01:45:06.507Z,13.40
2022-11-29T01:47:43.887Z,14.77
2022-11-29T01:50:11.278Z,14.15
2022-11-29T01:52:39.271Z,15.60
2022-11-29T01:55:09.079Z,12.30
2022-11-29T01:57:41.153Z,13.98
2022-11-29T02:00:13.557Z,13.45
2022-11-29T02:02:44.360Z,15.80
2022-11-29T02:05:14.884Z,15.23
2022-11-29T02:07:46.144Z,13.38
2022-11-29T02:10:14.373Z,11.98
2022-11-29T02:12:53.173Z,14.20
2022-11-29T02:15:42.750Z,12.20
2022-11-29T02:18:13.111Z,13.10
2022-11-29T02:21:07.898Z,17.73
2022-11-29T02:24:24.089Z,15.65
2022-11-29T02:27:26.331Z,13.85
2022-11-29T02:30:19.295Z,16.48
2022-11-29T02:33:32.682Z,14.75
2022-11-29T02:36:24.299Z,13.20
2022-11-29T02:39:14.401Z,15.70
2022-11-29T02:42:06.619Z,16.08
2022-11-29T02:44:54.228Z,16.05
2022-11-29T02:47:48.766Z,15.32
2022-11-29T02:50:29.870Z,16.83
2022-11-29T02:53:11.314Z,15.32
2022-11-29T02:55:46.571Z,16.92
2022-11-29T02:58:23.792Z,13.93
2022-11-29T03:01:01.222Z,15.98
2022-11-29T03:03:37.174Z,12.77
2022-11-29T03:06:13.239Z,16.60
2022-11-29T03:08:50.247Z,13.35
2022-11-29T03:11:28.591Z,15.32
2022-11-29T03:14:08.642Z,15.77
2022-11-29T03:16:43.723Z,14.90
2022-11-29T03:19:27.020Z,13.25
2022-11-29T03:22:04.980Z,16.63
2022-11-29T03:24:40.824Z,13.70
2022-11-29T03:27:13.068Z,14.95
2022-11-29T03:29:45.887Z,14.60
2022-11-29T03:32:22.878Z,13.45
2022-11-29T03:35:01.207Z,14.55
2022-11-29T03:37:35.247Z,12.70
2022-11-29T03:40:07.487Z,16.70
2022-11-29T03:42:38.551Z,14.20
2022-11-29T03:45:11.918Z,14.93
2022-11-29T03:47:48.947Z,13.68
2022-11-29T03:50:23.271Z,16.02
2022-11-29T03:52:54.785Z,15.38
2022-11-29T03:55:52.523Z,15.98
2022-11-29T03:58:34.452Z,16.95
2022-11-29T04:01:40.648Z,14.73
2022-11-29T04:04:54.885Z,16.98
2022-11-29T04:07:44.453Z,16.00
2022-11-29T04:10:34.512Z,19.58
2022-11-29T04:13:35.591Z,15.68
2022-11-29T04:16:31.464Z,15.32
2022-11-29T04:19:38.367Z,16.35
2022-11-29T04:22:26.092Z,17.58
2022-11-29T04:25:14.447Z,16.13
2022-11-29T04:27:52.218Z,16.45
2022-11-29T04:30:23.140Z,18.88
2022-11-29T04:33:19.795Z,17.75
2022-11-29T04:36:25.568Z,15.18
2022-11-29T04:39:29.480Z,16.42
2022-11-29T04:42:25.890Z,17.75
2022-11-29T04:45:10.302Z,30.08
2022-11-29T04:47:50.152Z,20.63
2022-11-29T04:50:37.832Z,16.45
2022-11-29T04:53:25.834Z,26.95
2022-11-29T04:56:01.069Z,18.25
2022-11-29T04:58:37.774Z,17.00
2022-11-29T05:01:11.747Z,17.00
2022-11-29T05:03:49.329Z,19.98
2022-11-29T05:06:25.450Z,20.65
2022-11-29T05:09:03.655Z,20.15
2022-11-29T05:11:44.584Z,20.45
2022-11-29T05:14:24.219Z,24.08
2022-11-29T05:17:01.135Z,23.67
2022-11-29T05:20:01.533Z,17.38
2022-11-29T05:22:36.092Z,26.33
2022-11-29T05:25:22.161Z,21.88
2022-11-29T05:27:56.921Z,22.35
2022-11-29T05:30:31.176Z,24.40
2022-11-29T05:33:10.276Z,28.75
2022-11-29T05:36:02.570Z,22.38
2022-11-29T05:38:47.372Z,25.67
2022-11-29T05:41:37.681Z,26.77
2022-11-29T05:44:11.760Z,25.13
2022-11-29T05:46:49.658Z,27.65
2022-11-29T05:49:28.775Z,27.45
2022-11-29T05:52:08.147Z,24.25
2022-11-29T05:54:41.462Z,24.40
2022-11-29T05:57:14.644Z,26.85
2022-11-29T05:59:44.418Z,32.08
2022-11-29T06:05:04.493Z,25.13
2022-11-29T06:07:39.449Z,29.00
2022-11-29T06:10:12.167Z,26.90
2022-11-29T06:12:42.644Z,32.67
2022-11-29T06:15:31.219Z,25.25
2022-11-29T06:18:14.992Z,30.45
2022-11-29T06:21:05.162Z,32.90
2022-11-29T06:23:53.290Z,30.10
2022-11-29T06:26:35.917Z,27.52
2022-11-29T06:29:20.412Z,28.48
2022-11-29T06:31:55.354Z,32.70
2022-11-29T06:34:31.123Z,31.48
2022-11-29T06:37:04.928Z,28.42
2022-11-29T06:39:34.554Z,28.42
2022-11-29T06:42:01.924Z,31.15
2022-11-29T06:44:29.730Z,35.67
2022-11-29T06:47:05.292Z,29.75
2022-11-29T06:49:39.179Z,29.25
2022-11-29T06:52:17.360Z,33.45
2022-11-29T06:55:00.868Z,36.67
2022-11-29T06:57:37.909Z,40.83
2022-11-29T07:00:13.608Z,30.50
2022-11-29T07:03:02.183Z,31.05
2022-11-29T07:05:31.341Z,35.88
2022-11-29T07:08:03.053Z,34.60
2022-11-29T07:10:36.825Z,32.22
2022-11-29T07:13:05.182Z,33.00
2022-11-29T07:15:33.362Z,33.67
2022-11-29T07:18:14.562Z,29.73
2022-11-29T07:20:50.129Z,30.58
2022-11-29T07:23:27.269Z,25.63
2022-11-29T07:26:09.249Z,32.85
2022-11-29T07:28:46.170Z,32.65
2022-11-29T07:31:25.987Z,31.27
2022-11-29T07:34:00.932Z,31.80
2022-11-29T07:36:39.510Z,32.45
2022-11-29T07:39:22.239Z,33.92
2022-11-29T07:42:00.942Z,29.98
2022-11-29T07:44:44.219Z,32.85
2022-11-29T07:47:13.174Z,34.45
2022-11-29T07:49:40.551Z,39.15
2022-11-29T07:52:12.020Z,30.90
2022-11-29T07:54:40.825Z,27.95
2022-11-29T07:57:09.722Z,27.67
2022-11-29T07:59:37.186Z,31.00
2022-11-29T08:02:11.291Z,28.98
2022-11-29T08:04:41.804Z,30.67
2022-11-29T08:07:09.353Z,32.15
2022-11-29T08:09:36.889Z,30.25
2022-11-29T08:12:04.776Z,33.70
2022-11-29T08:14:33.818Z,34.03
2022-11-29T08:17:01.246Z,32.25
2022-11-29T08:19:28.670Z,32.22
2022-11-29T08:21:56.143Z,33.75
2022-11-29T08:24:23.749Z,30.77
2022-11-29T08:26:51.260Z,32.78
2022-11-29T08:29:18.866Z,31.17
2022-11-29T08:31:51.285Z,30.20
2022-11-29T08:34:19.040Z,27.95
2022-11-29T08:36:46.631Z,24.55
2022-11-29T08:39:13.991Z,26.38
2022-11-29T08:41:41.579Z,29.15
2022-11-29T08:44:09.198Z,25.17
2022-11-29T08:46:36.562Z,26.52
2022-11-29T08:49:05.843Z,28.98
2022-11-29T08:51:33.200Z,23.08
2022-11-29T08:54:01.534Z,28.10
2022-11-29T08:59:16.417Z,28.33
2022-11-29T09:01:43.892Z,25.60
2022-11-29T09:04:13.173Z,23.33
2022-11-29T09:06:42.246Z,25.15
2022-11-29T09:09:09.715Z,25.63
2022-11-29T09:11:37.154Z,25.75
2022-11-29T09:14:07.295Z,22.63
2022-11-29T09:16:36.743Z,25.75
2022-11-29T09:19:05.382Z,24.05
2022-11-29T09:21:35.900Z,26.00
2022-11-29T09:24:05.168Z,54.70
2022-11-29T09:26:35.200Z,42.40
2022-11-29T09:29:06.169Z,35.67
2022-11-29T09:31:34.949Z,27.80
2022-11-29T09:34:02.977Z,31.07
2022-11-29T09:36:30.952Z,29.38
2022-11-29T09:39:01.347Z,28.95
2022-11-29T09:41:53.590Z,28.38
2022-11-29T09:44:30.328Z,28.13
2022-11-29T09:47:08.721Z,26.95
2022-11-29T09:49:55.683Z,28.40
2022-11-29T09:52:36.201Z,29.67
2022-11-29T09:55:20.438Z,30.23
2022-11-29T09:57:52.379Z,25.65
2022-11-29T10:00:20.787Z,31.42
2022-11-29T10:02:50.916Z,29.60
2022-11-29T10:05:23.879Z,35.88
2022-11-29T10:07:56.796Z,38.20
2022-11-29T10:10:30.086Z,34.88
2022-11-29T10:13:04.856Z,34.15
2022-11-29T10:15:39.280Z,31.40
2022-11-29T10:18:15.926Z,31.08
2022-11-29T10:20:49.258Z,36.53
2022-11-29T10:23:23.301Z,33.53
2022-11-29T10:25:54.897Z,38.03
2022-11-29T10:28:25.217Z,39.35
2022-11-29T10:30:55.596Z,36.17
2022-11-29T10:33:27.072Z,33.88
2022-11-29T10:35:58.595Z,38.35
2022-11-29T10:38:32.982Z,37.08
2022-11-29T10:41:07.065Z,38.63
2022-11-29T10:43:34.904Z,41.65
2022-11-29T10:46:02.307Z,42.22
2022-11-29T10:48:33.012Z,36.50
2022-11-29T10:51:01.334Z,33.50
2022-11-29T10:53:32.383Z,37.28
2022-11-29T10:56:06.009Z,40.72
2022-11-29T10:58:34.157Z,37.55
2022-11-29T11:01:03.510Z,38.05
2022-11-29T11:03:37.534Z,37.97
2022-11-29T11:06:10.919Z,32.25
2022-11-29T11:08:41.540Z,34.53
2022-11-29T11:11:11.981Z,33.40
2022-11-29T11:13:40.557Z,36.17
2022-11-29T11:16:11.468Z,32.08
2022-11-29T11:18:38.799Z,30.75
2022-11-29T11:21:10.802Z,32.10
2022-11-29T11:23:44.791Z,32.65
2022-11-29T11:26:14.798Z,34.50
2022-11-29T11:28:48.900Z,31.67
2022-11-29T11:31:25.688Z,32.85
2022-11-29T11:33:53.686Z,34.15
2022-11-29T11:36:24.012Z,31.52
2022-11-29T11:38:54.473Z,32.28
2022-11-29T11:41:27.179Z,33.72
2022-11-29T11:43:57.440Z,34.22
2022-11-29T11:46:49.696Z,30.50
2022-11-29T11:49:26.728Z,28.70
2022-11-29T11:51:54.741Z,33.15
2022-11-29T11:54:22.241Z,32.20
2022-11-29T11:56:52.118Z,35.78
2022-11-29T11:59:22.582Z,27.38
2022-11-29T12:01:50.530Z,26.25
2022-11-29T12:04:22.250Z,29.10
2022-11-29T12:06:52.057Z,26.92
2022-11-29T12:09:30.847Z,28.92
2022-11-29T12:12:09.631Z,22.63
2022-11-29T12:14:46.498Z,34.87
2022-11-29T12:17:22.206Z,32.85
2022-11-29T12:20:10.250Z,34.63
2022-11-29T12:22:48.031Z,33.45
2022-11-29T12:25:20.980Z,33.75
2022-11-29T12:27:51.120Z,29.42
2022-11-29T12:30:19.659Z,30.10
2022-11-29T12:33:01.102Z,27.65
2022-11-29T12:35:58.387Z,30.58
2022-11-29T12:38:44.388Z,33.88
2022-11-29T12:41:27.187Z,24.98
2022-11-29T12:44:04.945Z,27.38
2022-11-29T12:46:34.686Z,30.60
2022-11-29T12:51:44.394Z,25.95
2022-11-29T12:54:29.236Z,27.63
2022-11-29T12:57:05.494Z,23.92
2022-11-29T12:59:46.746Z,24.83
2022-11-29T13:02:25.642Z,28.02
2022-11-29T13:05:01.422Z,22.63
2022-11-29T13:07:40.588Z,25.17
2022-11-29T13:10:33.008Z,23.25
2022-11-29T13:13:11.899Z,22.60
2022-11-29T13:15:49.674Z,23.25
2022-11-29T13:18:26.109Z,26.00
2022-11-29T13:20:58.632Z,20.95
2022-11-29T13:23:45.845Z,23.75
2022-11-29T13:26:21.085Z,24.90
2022-11-29T13:28:49.406Z,23.70
2022-11-29T13:31:20.702Z,25.38
2022-11-29T13:33:58.220Z,22.50
2022-11-29T13:36:34.902Z,24.88
2022-11-29T13:39:14.921Z,25.92
2022-11-29T13:41:48.505Z,20.95
2022-11-29T13:44:23.785Z,20.75
2022-11-29T13:47:05.888Z,25.10
2022-11-29T13:49:54.432Z,22.65
2022-11-29T13:52:48.571Z,21.77
2022-11-29T13:55:23.540Z,20.02
2022-11-29T13:58:15.391Z,24.42
2022-11-29T14:00:50.174Z,22.48
2022-11-29T14:03:30.066Z,22.23
2022-11-29T14:06:09.142Z,24.02
2022-11-29T14:09:02.379Z,20.08
2022-11-29T14:11:31.743Z,18.38
2022-11-29T14:14:04.792Z,25.27
2022-11-29T14:16:36.624Z,23.90
2022-11-29T14:19:21.787Z,23.17
2022-11-29T14:22:17.915Z,24.50
2022-11-29T14:25:16.392Z,22.05
2022-11-29T14:27:56.569Z,23.60
2022-11-29T14:30:47.398Z,27.13
2022-11-29T14:33:51.378Z,23.35
2022-11-29T14:36:50.488Z,22.38
2022-11-29T14:39:30.422Z,24.52
2022-11-29T14:44:33.181Z,22.25
2022-11-29T14:47:06.868Z,25.90
2022-11-29T14:49:40.543Z,20.80
2022-11-29T14:52:31.437Z,20.77
2022-11-29T14:55:06.490Z,16.90
2022-11-29T14:57:54.011Z,22.15
2022-11-29T15:00:23.529Z,19.63
2022-11-29T15:02:55.008Z,19.10
2022-11-29T15:05:30.797Z,21.70
2022-11-29T15:08:09.412Z,22.02
2022-11-29T15:10:41.120Z,22.77
2022-11-29T15:13:12.291Z,17.65
2022-11-29T15:15:57.700Z,17.88
2022-11-29T15:18:47.485Z,16.83
2022-11-29T15:23:59.481Z,19.55
2022-11-29T15:26:26.914Z,18.58
2022-11-29T15:29:11.780Z,18.02
2022-11-29T15:31:41.897Z,18.77
2022-11-29T15:34:20.411Z,18.40
2022-11-29T15:36:48.303Z,18.02
2022-11-29T15:39:32.040Z,19.67
2022-11-29T15:42:06.608Z,20.00
2022-11-29T15:44:34.267Z,21.88
2022-11-29T15:47:23.643Z,21.20
2022-11-29T15:49:52.169Z,19.77
2022-11-29T15:52:26.179Z,19.27
2022-11-29T15:55:00.841Z,21.38
2022-11-29T15:57:33.005Z,21.88
2022-11-29T16:00:02.569Z,16.45
2022-11-29T16:02:34.318Z,16.52
2022-11-29T16:05:05.304Z,20.23
2022-11-29T16:07:33.020Z,19.08
2022-11-29T16:10:10.742Z,17.10
2022-11-29T16:12:52.172Z,19.55
2022-11-29T16:15:30.767Z,23.23
2022-11-29T16:18:04.123Z,21.25
2022-11-29T16:20:31.861Z,17.25
2022-11-29T16:23:04.753Z,18.17
2022-11-29T16:25:37.617Z,21.10
2022-11-29T16:28:11.502Z,17.80
2022-11-29T16:30:41.668Z,24.20
2022-11-29T16:33:19.371Z,20.13
2022-11-29T16:35:47.587Z,22.25
2022-11-29T16:38:20.559Z,23.20
2022-11-29T16:41:05.004Z,21.45
2022-11-29T16:43:51.318Z,20.83
2022-11-29T16:46:36.818Z,21.63
2022-11-29T16:49:33.421Z,17.05
2022-11-29T16:52:03.781Z,22.25
2022-11-29T16:54:33.204Z,16.73
2022-11-29T16:57:05.469Z,18.55
2022-11-29T16:59:33.163Z,20.15
2022-11-29T17:02:00.745Z,26.80
2022-11-29T17:04:28.248Z,17.83
2022-11-29T17:06:57.062Z,20.40
2022-11-29T17:09:26.496Z,18.03
2022-11-29T17:11:54.582Z,18.13
2022-11-29T17:14:23.787Z,18.10
2022-11-29T17:16:51.504Z,22.35
2022-11-29T17:19:19.704Z,19.10
2022-11-29T17:21:47.352Z,18.45
2022-11-29T17:24:17.272Z,19.50
2022-11-29T17:26:45.740Z,18.15
2022-11-29T17:29:15.595Z,17.70
2022-11-29T17:31:45.844Z,19.40
2022-11-29T17:34:13.925Z,17.27
2022-11-29T17:36:41.267Z,20.75
2022-11-29T17:39:09.426Z,18.88
2022-11-29T17:41:37.647Z,14.98
2022-11-29T17:44:06.814Z,19.60
2022-11-29T17:46:36.016Z,16.77
2022-11-29T17:49:06.941Z,19.38
2022-11-29T17:51:52.618Z,14.95
2022-11-29T17:54:20.328Z,17.67
2022-11-29T17:56:47.854Z,17.83
2022-11-29T17:59:15.480Z,16.50
2022-11-29T18:01:43.142Z,17.40
2022-11-29T18:04:12.537Z,15.25
2022-11-29T18:06:41.198Z,19.80
2022-11-29T18:09:10.355Z,14.05
2022-11-29T18:11:47.092Z,16.08
2022-11-29T18:14:17.361Z,17.33
2022-11-29T18:16:44.948Z,17.85
2022-11-29T18:19:15.761Z,19.77
2022-11-29T18:21:43.160Z,18.92
2022-11-29T18:24:11.259Z,17.42
2022-11-29T18:26:39.457Z,16.40
2022-11-29T18:29:07.763Z,17.65
2022-11-29T18:31:37.759Z,14.63
2022-11-29T18:34:07.189Z,21.00
2022-11-29T18:39:07.272Z,16.63
2022-11-29T18:44:04.426Z,17.48
2022-11-29T18:46:32.479Z,15.82
2022-11-29T18:49:00.710Z,14.10
2022-11-29T18:51:30.169Z,18.70
2022-11-29T18:53:59.646Z,17.55
2022-11-29T18:56:29.934Z,14.82
2022-11-29T18:58:59.369Z,13.88
2022-11-29T19:01:28.479Z,17.45
2022-11-29T19:03:59.199Z,17.63
2022-11-29T19:06:30.808Z,14.38
2022-11-29T19:09:05.034Z,13.50
2022-11-29T19:11:33.591Z,13.05
2022-11-29T19:14:03.347Z,15.55
2022-11-29T19:16:33.864Z,14.90
2022-11-29T19:19:02.176Z,14.38
2022-11-29T19:21:31.191Z,16.10
2022-11-29T19:24:00.067Z,15.68
2022-11-29T19:26:30.662Z,13.13
2022-11-29T19:28:59.722Z,15.23
2022-11-29T19:31:27.953Z,15.07
2022-11-29T19:33:56.128Z,13.18
2022-11-29T19:36:25.177Z,15.02
2022-11-29T19:38:54.344Z,13.45
2022-11-29T19:41:24.537Z,13.43
2022-11-29T19:43:55.957Z,15.10
2022-11-29T19:46:25.513Z,13.02
2022-11-29T19:51:21.190Z,14.25
2022-11-29T19:53:52.524Z,13.38
2022-11-29T19:56:20.009Z,18.15
2022-11-29T19:58:47.781Z,16.42
2022-11-29T20:01:18.274Z,16.92
2022-11-29T20:03:45.994Z,17.77
2022-11-29T20:06:14.274Z,19.60
2022-11-29T20:08:42.307Z,18.88
2022-11-29T20:11:11.886Z,20.13
2022-11-29T20:13:40.565Z,19.00
2022-11-29T20:16:10.544Z,20.15
2022-11-29T20:18:48.736Z,19.92
2022-11-29T20:21:19.990Z,20.15
2022-11-29T20:23:48.165Z,19.48
2022-11-29T20:26:18.824Z,20.65
2022-11-29T20:28:47.333Z,18.40
2022-11-29T20:31:16.540Z,19.90
2022-11-29T20:33:46.812Z,18.80
2022-11-29T20:36:27.778Z,23.15
2022-11-29T20:39:03.625Z,20.30
2022-11-29T20:41:38.200Z,17.10
2022-11-29T20:44:05.849Z,20.42
2022-11-29T20:46:33.591Z,18.33
2022-11-29T20:49:06.369Z,19.50
2022-11-29T20:51:40.139Z,17.25
2022-11-29T20:54:09.703Z,18.05
2022-11-29T20:56:37.180Z,17.15
2022-11-29T20:59:04.516Z,19.48
2022-11-29T21:01:31.940Z,19.02
2022-11-29T21:03:59.324Z,15.82
2022-11-29T21:06:28.131Z,16.48
2022-11-29T21:08:55.426Z,20.83
2022-11-29T21:11:24.074Z,19.77
2022-11-29T21:13:51.934Z,15.43
2022-11-29T21:16:26.689Z,16.15
2022-11-29T21:18:56.959Z,20.25
2022-11-29T21:24:03.022Z,16.33
2022-11-29T21:26:37.158Z,17.08
2022-11-29T21:29:14.935Z,17.23
2022-11-29T21:31:42.755Z,17.02
2022-11-29T21:34:10.256Z,17.05
2022-11-29T21:36:38.255Z,19.20
2022-11-29T21:39:10.882Z,16.35
2022-11-29T21:41:38.294Z,17.95
2022-11-29T21:44:07.527Z,16.30
2022-11-29T21:46:36.635Z,14.80
2022-11-29T21:49:05.031Z,20.80
2022-11-29T21:51:32.440Z,14.70
2022-11-29T21:53:59.767Z,15.68
2022-11-29T21:56:28.671Z,16.10
2022-11-29T21:58:55.950Z,15.57
2022-11-29T22:01:24.014Z,15.77
2022-11-29T22:03:53.641Z,12.50
2022-11-29T22:06:21.871Z,15.15
2022-11-29T22:08:49.875Z,14.35
2022-11-29T22:11:18.795Z,13.32
2022-11-29T22:13:48.103Z,13.05
2022-11-29T22:16:15.428Z,14.97
2022-11-29T22:18:42.935Z,17.48
2022-11-29T22:21:10.236Z,15.10
2022-11-29T22:23:37.561Z,14.50
2022-11-29T22:26:05.998Z,15.15
2022-11-29T22:28:34.152Z,11.95
2022-11-29T22:31:04.767Z,14.77
2022-11-29T22:33:32.288Z,14.20
2022-11-29T22:36:03.951Z,14.50
2022-11-29T22:38:31.728Z,14.45
2022-11-29T22:41:02.747Z,14.32
2022-11-29T22:43:31.533Z,12.80
2022-11-29T22:46:05.961Z,15.83
2022-11-29T22:48:38.408Z,15.73
2022-11-29T22:51:08.323Z,13.98
2022-11-29T22:53:36.447Z,14.07
2022-11-29T22:56:06.278Z,13.23
2022-11-29T22:58:34.111Z,12.85
2022-11-29T23:01:02.747Z,12.07
2022-11-29T23:03:33.807Z,13.13
2022-11-29T23:06:06.144Z,13.18
2022-11-29T23:08:34.340Z,13.70
2022-11-29T23:11:04.075Z,13.18
2022-11-29T23:13:31.767Z,13.20
2022-11-29T23:15:59.812Z,14.40
2022-11-29T23:18:27.792Z,12.13
2022-11-29T23:21:02.068Z,14.05
2022-11-29T23:23:30.568Z,13.02
2022-11-29T23:25:58.439Z,13.23
2022-11-29T23:28:26.790Z,14.23
2022-11-29T23:30:54.990Z,14.02
2022-11-29T23:33:22.475Z,12.23
2022-11-29T23:35:50.586Z,12.40
2022-11-29T23:38:19.377Z,17.40
2022-11-29T23:40:46.924Z,16.57
2022-11-29T23:43:14.280Z,12.82
2022-11-29T23:45:42.140Z,15.70
2022-11-29T23:48:09.524Z,14.23
2022-11-29T23:50:37.123Z,12.35
2022-11-29T23:53:05.180Z,15.50
2022-11-29T23:55:33.934Z,13.75
2022-11-29T23:58:01.756Z,13.85
